createdAt,value
2018-07-11T00:01:46.945Z,94.10
2018-07-11T00:06:42.663Z,93.90
2018-07-11T00:16:33.121Z,94.20
2018-07-11T00:21:28.941Z,94.30
2018-07-11T00:26:25.158Z,94.30
2018-07-11T00:36:15.909Z,94.70
2018-07-11T00:41:11.693Z,94.90
2018-07-11T00:46:08.095Z,94.90
2018-07-11T00:51:05.193Z,95.00
2018-07-11T00:56:03.168Z,95.10
2018-07-11T01:01:07.629Z,95.10
2018-07-11T01:06:03.274Z,95.10
2018-07-11T01:11:04.133Z,95.10
2018-07-11T01:15:59.929Z,94.90
2018-07-11T01:20:56.026Z,94.80
2018-07-11T01:25:51.577Z,94.80
2018-07-11T01:30:48.052Z,94.70
2018-07-11T01:35:43.499Z,94.60
2018-07-11T01:40:39.202Z,94.50
2018-07-11T01:45:36.271Z,94.50
2018-07-11T01:50:33.001Z,94.50
2018-07-11T01:55:29.128Z,94.50
2018-07-11T02:00:25.229Z,94.40
2018-07-11T02:05:20.824Z,94.60
2018-07-11T02:10:17.250Z,94.90
2018-07-11T02:15:14.003Z,94.70
2018-07-11T02:20:17.474Z,94.70
2018-07-11T02:25:14.786Z,94.90
2018-07-11T02:30:10.560Z,95.20
2018-07-11T02:35:07.457Z,94.60
2018-07-11T02:40:03.649Z,94.40
2018-07-11T02:44:59.306Z,94.20
2018-07-11T02:50:03.216Z,94.20
2018-07-11T02:55:01.209Z,94.10
2018-07-11T02:59:57.884Z,94.20
2018-07-11T03:04:54.944Z,94.40
2018-07-11T03:09:50.685Z,94.40
2018-07-11T03:14:51.161Z,94.60
2018-07-11T03:19:46.670Z,94.40
2018-07-11T03:24:42.709Z,94.40
2018-07-11T03:29:38.304Z,94.50
2018-07-11T03:34:34.013Z,94.30
2018-07-11T03:39:29.762Z,94.10
2018-07-11T03:44:25.805Z,94.00
2018-07-11T03:49:21.818Z,94.30
2018-07-11T03:54:18.022Z,93.80
2018-07-11T03:59:14.153Z,93.80
2018-07-11T04:04:09.758Z,93.50
2018-07-11T04:14:00.820Z,92.90
2018-07-11T04:18:56.980Z,92.70
2018-07-11T04:23:52.601Z,92.70
2018-07-11T04:28:48.312Z,93.20
2018-07-11T04:38:39.226Z,94.00
2018-07-11T04:43:35.046Z,93.90
2018-07-11T04:48:31.031Z,94.00
2018-07-11T04:53:27.739Z,93.30
2018-07-11T04:58:24.320Z,93.70
2018-07-11T05:03:20.813Z,93.70
2018-07-11T05:08:16.065Z,93.30
2018-07-11T05:13:12.646Z,92.90
2018-07-11T05:18:08.197Z,93.10
2018-07-11T05:23:04.906Z,92.30
2018-07-11T05:28:07.220Z,92.10
2018-07-11T05:33:04.958Z,92.10
2018-07-11T05:38:00.845Z,92.30
2018-07-11T05:42:57.035Z,92.00
2018-07-11T05:47:52.762Z,91.50
2018-07-11T05:52:48.618Z,91.60
2018-07-11T05:57:44.395Z,91.80
2018-07-11T06:07:35.599Z,90.70
2018-07-11T06:12:33.291Z,89.40
2018-07-11T06:17:30.307Z,89.60
2018-07-11T06:22:26.968Z,87.40
2018-07-11T06:27:23.787Z,86.70
2018-07-11T06:32:19.535Z,85.20
2018-07-11T06:37:15.700Z,83.80
2018-07-11T06:47:12.654Z,81.00
2018-07-11T06:52:08.686Z,78.60
2018-07-11T06:57:08.373Z,74.50
2018-07-11T07:02:07.916Z,72.20
2018-07-11T07:07:06.617Z,66.20
2018-07-11T07:12:04.255Z,62.80
2018-07-11T07:26:52.126Z,57.80
2018-07-11T07:31:48.282Z,58.10
2018-07-11T07:36:45.075Z,55.50
2018-07-11T07:51:33.772Z,53.90
2018-07-11T07:56:29.538Z,53.50
2018-07-11T08:01:25.514Z,53.40
2018-07-11T08:06:21.536Z,51.60
2018-07-11T08:11:21.006Z,41.80
2018-07-11T08:16:18.160Z,37.80
2018-07-11T08:21:14.154Z,35.10
2018-07-11T08:26:20.499Z,37.40
2018-07-11T08:31:28.070Z,37.70
2018-07-11T08:37:34.751Z,38.50
2018-07-11T08:42:56.210Z,36.90
2018-07-11T08:50:04.061Z,33.40
2018-07-11T08:55:42.422Z,32.60
2018-07-11T09:00:55.880Z,38.70
2018-07-11T09:07:05.893Z,41.60
2018-07-11T09:16:21.309Z,34.60
2018-07-11T09:23:32.484Z,27.80
2018-07-11T09:28:28.131Z,33.20
2018-07-11T09:33:24.424Z,31.40
2018-07-11T09:38:20.000Z,34.50
2018-07-11T09:43:15.850Z,35.80
2018-07-11T09:48:11.549Z,38.80
2018-07-11T09:53:07.662Z,39.90
2018-07-11T09:58:04.858Z,41.00
2018-07-11T10:03:00.978Z,43.00
2018-07-11T10:07:57.829Z,41.70
2018-07-11T10:17:50.498Z,42.60
2018-07-11T10:22:46.508Z,40.00
2018-07-11T10:27:44.050Z,39.60
2018-07-11T10:32:40.104Z,38.30
2018-07-11T10:42:31.195Z,38.60
2018-07-11T10:47:27.840Z,39.90
2018-07-11T10:52:25.179Z,37.50
2018-07-11T10:57:21.965Z,35.20
2018-07-11T11:02:22.202Z,33.30
2018-07-11T11:12:12.725Z,35.60
2018-07-11T11:17:09.985Z,35.50
2018-07-11T11:22:10.487Z,34.00
2018-07-11T11:27:09.096Z,32.50
2018-07-11T11:32:07.709Z,36.10
2018-07-11T11:37:05.988Z,35.00
2018-07-11T11:42:03.598Z,36.40
2018-07-11T11:47:04.466Z,34.80
2018-07-11T11:51:59.973Z,36.90
2018-07-11T11:56:55.741Z,37.20
2018-07-11T12:01:51.923Z,37.80
2018-07-11T12:06:48.887Z,36.10
2018-07-11T12:11:44.453Z,37.00
2018-07-11T12:16:39.991Z,36.80
2018-07-11T12:21:39.761Z,35.60
2018-07-11T12:26:35.811Z,35.50
2018-07-11T12:31:32.329Z,35.50
2018-07-11T12:36:28.941Z,36.30
2018-07-11T12:41:25.271Z,41.40
2018-07-11T12:46:22.152Z,43.70
2018-07-11T12:51:18.852Z,42.50
2018-07-11T12:56:15.338Z,45.40
2018-07-11T13:01:10.901Z,47.00
2018-07-11T13:06:07.072Z,47.80
2018-07-11T13:11:03.917Z,47.40
2018-07-11T13:15:59.933Z,47.60
2018-07-11T13:25:51.545Z,48.20
2018-07-11T13:30:47.542Z,49.70
2018-07-11T13:35:43.557Z,50.50
2018-07-11T13:40:39.292Z,49.30
2018-07-11T13:45:34.956Z,51.20
2018-07-11T13:50:31.721Z,49.70
2018-07-11T13:55:27.575Z,51.20
2018-07-11T14:00:23.136Z,52.40
2018-07-11T14:05:19.554Z,53.70
2018-07-11T14:10:15.049Z,50.90
2018-07-11T14:15:11.186Z,57.40
2018-07-11T14:20:08.043Z,64.40
2018-07-11T14:25:05.362Z,68.00
2018-07-11T14:30:01.974Z,74.10
2018-07-11T14:44:50.885Z,78.20
2018-07-11T14:49:46.792Z,77.60
2018-07-11T14:54:42.601Z,70.40
2018-07-11T14:59:38.239Z,71.00
2018-07-11T15:04:34.978Z,74.50
2018-07-11T15:09:30.643Z,75.10
2018-07-11T15:14:26.508Z,75.90
2018-07-11T15:19:24.493Z,73.20
2018-07-11T15:24:20.530Z,74.00
2018-07-11T15:29:16.624Z,67.80
2018-07-11T15:34:19.285Z,68.30
2018-07-11T15:39:16.693Z,69.40
2018-07-11T15:44:13.123Z,71.30
2018-07-11T15:49:10.571Z,74.00
2018-07-11T15:59:07.480Z,76.30
2018-07-11T16:04:03.204Z,74.30
2018-07-11T16:09:01.660Z,71.40
2018-07-11T16:13:57.067Z,72.80
2018-07-11T16:18:52.825Z,69.70
2018-07-11T16:23:48.590Z,72.70
2018-07-11T16:28:44.294Z,69.60
2018-07-11T16:33:40.206Z,73.00
2018-07-11T16:38:37.219Z,70.90
2018-07-11T16:43:34.037Z,70.30
2018-07-11T16:53:24.916Z,68.50
2018-07-11T16:58:27.008Z,66.70
2018-07-11T17:03:22.791Z,65.40
2018-07-11T17:08:38.638Z,69.20
2018-07-11T17:13:34.475Z,67.60
2018-07-11T17:18:47.639Z,66.00
2018-07-11T17:23:53.961Z,67.40
2018-07-11T17:28:49.914Z,65.60
2018-07-11T17:33:45.817Z,67.20
2018-07-11T17:38:41.589Z,68.00
2018-07-11T17:43:40.698Z,67.90
2018-07-11T17:49:49.176Z,68.40
2018-07-11T17:54:59.218Z,70.00
2018-07-11T18:00:06.355Z,71.10
2018-07-11T18:05:15.520Z,69.50
2018-07-11T18:10:12.808Z,70.70
2018-07-11T18:17:20.868Z,69.20
2018-07-11T18:23:29.983Z,71.40
2018-07-11T18:28:38.829Z,71.80
2018-07-11T18:34:43.570Z,71.40
2018-07-11T18:39:49.837Z,70.70
2018-07-11T18:44:56.313Z,72.20
2018-07-11T18:52:06.801Z,73.00
2018-07-11T18:57:10.083Z,73.70
2018-07-11T19:02:21.751Z,76.10
2018-07-11T19:12:41.467Z,79.50
2018-07-11T19:18:17.471Z,79.10
2018-07-11T19:23:53.999Z,79.40
2018-07-11T19:29:27.183Z,81.20
2018-07-11T19:34:30.053Z,82.90
2018-07-11T19:39:44.138Z,84.70
2018-07-11T19:44:50.643Z,86.00
2018-07-11T19:54:57.176Z,87.00
2018-07-11T19:59:52.563Z,87.00
2018-07-11T20:04:48.690Z,87.50
2018-07-11T20:09:46.954Z,87.20
2018-07-11T20:14:44.430Z,87.90
2018-07-11T20:19:41.287Z,88.30
2018-07-11T20:24:37.694Z,89.50
2018-07-11T20:29:33.071Z,90.20
2018-07-11T20:34:29.237Z,90.20
2018-07-11T20:39:24.517Z,90.20
2018-07-11T20:44:20.440Z,90.10
2018-07-11T20:49:21.773Z,89.50
2018-07-11T20:54:17.590Z,90.10
2018-07-11T20:59:23.942Z,90.30
2018-07-11T21:05:05.735Z,90.40
2018-07-11T21:10:19.444Z,90.30
2018-07-11T21:17:35.008Z,89.40
2018-07-11T21:22:32.809Z,90.00
2018-07-11T21:27:33.472Z,89.80
2018-07-11T21:32:28.992Z,90.00
2018-07-11T21:37:26.124Z,90.00
2018-07-11T21:42:21.986Z,90.30
2018-07-11T21:47:17.974Z,90.10
2018-07-11T21:52:14.448Z,90.80
2018-07-11T21:57:10.267Z,90.60
2018-07-11T22:02:08.433Z,90.70
2018-07-11T22:07:07.249Z,90.40
2018-07-11T22:12:04.057Z,90.30
2018-07-11T22:17:05.263Z,90.20
2018-07-11T22:21:59.113Z,90.30
2018-07-11T22:26:52.918Z,90.40
2018-07-11T22:36:40.592Z,90.80
2018-07-11T22:41:34.206Z,91.20
2018-07-11T22:46:27.842Z,91.50
2018-07-11T22:56:15.200Z,92.00
2018-07-11T23:01:08.660Z,92.40
2018-07-11T23:06:03.175Z,92.60
2018-07-11T23:10:56.603Z,92.80
2018-07-11T23:15:50.267Z,93.00
2018-07-11T23:20:43.808Z,93.30
2018-07-11T23:25:38.578Z,92.80
2018-07-11T23:30:32.284Z,93.20
2018-07-11T23:35:26.924Z,92.90
2018-07-11T23:40:20.715Z,92.80
2018-07-11T23:45:14.436Z,92.80
2018-07-11T23:50:07.794Z,92.90
2018-07-11T23:55:01.667Z,93.00
2018-07-11T23:59:55.707Z,93.00
